createdAt,value
2019-05-10T00:00:21.242Z,984.95
2019-05-10T00:01:42.221Z,984.96
2019-05-10T00:02:21.193Z,984.92
2019-05-10T00:03:21.193Z,984.97
2019-05-10T00:04:21.206Z,984.98
2019-05-10T00:05:21.129Z,984.99
2019-05-10T00:06:21.202Z,984.99
2019-05-10T00:07:42.093Z,985.01
2019-05-10T00:08:21.074Z,985.01
2019-05-10T00:09:21.049Z,985.03
2019-05-10T00:10:21.028Z,985.05
2019-05-10T00:11:21.011Z,985.02
2019-05-10T00:12:20.992Z,985.06
2019-05-10T00:13:41.964Z,985.10
2019-05-10T00:14:20.942Z,985.13
2019-05-10T00:15:20.928Z,985.12
2019-05-10T00:16:20.901Z,985.17
2019-05-10T00:17:20.878Z,985.16
2019-05-10T00:18:20.859Z,985.20
2019-05-10T00:19:41.845Z,985.22
2019-05-10T00:20:20.826Z,985.25
2019-05-10T00:21:20.802Z,985.26
2019-05-10T00:22:20.772Z,985.23
2019-05-10T00:23:20.810Z,985.26
2019-05-10T00:24:20.732Z,985.28
2019-05-10T00:25:41.717Z,985.34
2019-05-10T00:26:20.694Z,985.32
2019-05-10T00:27:20.700Z,985.31
2019-05-10T00:28:20.656Z,985.29
2019-05-10T00:29:20.634Z,985.26
2019-05-10T00:30:20.617Z,985.28
2019-05-10T00:31:41.593Z,985.30
2019-05-10T00:32:20.579Z,985.28
2019-05-10T00:33:20.548Z,985.32
2019-05-10T00:34:20.532Z,985.31
2019-05-10T00:35:20.509Z,985.33
2019-05-10T00:36:20.506Z,985.30
2019-05-10T00:37:41.515Z,985.30
2019-05-10T00:38:20.494Z,985.34
2019-05-10T00:39:20.487Z,985.33
2019-05-10T00:40:20.470Z,985.36
2019-05-10T00:41:20.385Z,985.33
2019-05-10T00:42:20.364Z,985.37
2019-05-10T00:43:41.338Z,985.38
2019-05-10T00:44:20.318Z,985.37
2019-05-10T00:45:20.297Z,985.37
2019-05-10T00:46:20.274Z,985.38
2019-05-10T00:47:20.281Z,985.41
2019-05-10T00:48:20.265Z,985.42
2019-05-10T00:49:41.210Z,985.45
2019-05-10T00:50:20.192Z,985.39
2019-05-10T00:51:20.175Z,985.36
2019-05-10T00:52:20.155Z,985.37
2019-05-10T00:53:20.130Z,985.38
2019-05-10T00:54:20.105Z,985.34
2019-05-10T00:55:41.093Z,985.39
2019-05-10T00:56:20.067Z,985.38
2019-05-10T00:57:20.050Z,985.39
2019-05-10T00:58:20.022Z,985.40
2019-05-10T00:59:20.002Z,985.42
2019-05-10T01:00:19.986Z,985.48
2019-05-10T01:01:40.965Z,985.50
2019-05-10T01:02:19.938Z,985.48
2019-05-10T01:03:19.929Z,985.48
2019-05-10T01:04:20.771Z,985.43
2019-05-10T01:05:19.880Z,985.44
2019-05-10T01:06:19.855Z,985.42
2019-05-10T01:07:40.837Z,985.43
2019-05-10T01:08:19.820Z,985.43
2019-05-10T01:09:19.794Z,985.41
2019-05-10T01:10:19.776Z,985.46
2019-05-10T01:11:19.748Z,985.49
2019-05-10T01:12:19.726Z,985.46
2019-05-10T01:13:40.716Z,985.44
2019-05-10T01:14:19.693Z,985.42
2019-05-10T01:15:19.665Z,985.44
2019-05-10T01:16:19.652Z,985.44
2019-05-10T01:17:19.632Z,985.45
2019-05-10T01:18:19.607Z,985.47
2019-05-10T01:19:40.587Z,985.50
2019-05-10T01:20:19.563Z,985.51
2019-05-10T01:21:19.541Z,985.50
2019-05-10T01:22:19.519Z,985.54
2019-05-10T01:23:19.499Z,985.55
2019-05-10T01:24:19.476Z,985.55
2019-05-10T01:25:40.448Z,985.54
2019-05-10T01:26:19.432Z,985.57
2019-05-10T01:27:19.448Z,985.62
2019-05-10T01:28:19.392Z,985.61
2019-05-10T01:29:19.374Z,985.66
2019-05-10T01:30:19.361Z,985.69
2019-05-10T01:31:40.338Z,985.67
2019-05-10T01:32:19.316Z,985.73
2019-05-10T01:33:19.295Z,985.70
2019-05-10T01:34:19.291Z,985.68
2019-05-10T01:35:19.250Z,985.68
2019-05-10T01:36:19.225Z,985.71
2019-05-10T01:37:40.206Z,985.70
2019-05-10T01:38:19.189Z,985.75
2019-05-10T01:39:19.167Z,985.75
2019-05-10T01:40:19.141Z,985.74
2019-05-10T01:41:19.112Z,985.76
2019-05-10T01:42:19.098Z,985.78
2019-05-10T01:43:40.083Z,985.77
2019-05-10T01:44:19.115Z,985.78
2019-05-10T01:45:19.042Z,985.79
2019-05-10T01:46:19.020Z,985.78
2019-05-10T01:47:18.997Z,985.84
2019-05-10T01:48:18.975Z,985.84
2019-05-10T01:49:39.953Z,985.85
2019-05-10T01:50:18.929Z,985.87
2019-05-10T01:51:18.945Z,985.89
2019-05-10T01:52:18.891Z,985.90
2019-05-10T01:53:18.867Z,985.85
2019-05-10T01:54:18.845Z,985.93
2019-05-10T01:55:51.473Z,985.99
2019-05-10T01:56:18.800Z,985.97
2019-05-10T01:57:18.779Z,985.96
2019-05-10T01:58:18.764Z,985.95
2019-05-10T01:59:18.740Z,985.96
2019-05-10T02:00:18.721Z,985.98
2019-05-10T02:01:39.693Z,986.01
2019-05-10T02:02:18.673Z,985.96
2019-05-10T02:03:18.658Z,985.99
2019-05-10T02:04:18.639Z,985.95
2019-05-10T02:05:18.612Z,985.97
2019-05-10T02:06:18.590Z,986.00
2019-05-10T02:07:39.585Z,986.03
2019-05-10T02:08:18.564Z,986.04
2019-05-10T02:09:18.529Z,986.05
2019-05-10T02:10:18.513Z,986.06
2019-05-10T02:11:18.486Z,986.07
2019-05-10T02:12:18.462Z,986.04
2019-05-10T02:13:39.446Z,986.09
2019-05-10T02:14:18.420Z,986.01
2019-05-10T02:15:18.394Z,986.08
2019-05-10T02:16:18.381Z,986.09
2019-05-10T02:17:18.353Z,986.09
2019-05-10T02:18:18.350Z,986.07
2019-05-10T02:19:39.319Z,986.13
2019-05-10T02:20:18.307Z,986.13
2019-05-10T02:21:18.278Z,986.10
2019-05-10T02:22:18.266Z,986.14
2019-05-10T02:23:18.229Z,986.17
2019-05-10T02:24:18.245Z,986.14
2019-05-10T02:25:39.193Z,986.12
2019-05-10T02:26:18.164Z,986.13
2019-05-10T02:27:18.151Z,986.14
2019-05-10T02:28:18.141Z,986.13
2019-05-10T02:29:18.106Z,986.15
2019-05-10T02:30:18.088Z,986.15
2019-05-10T02:31:39.074Z,986.16
2019-05-10T02:32:18.038Z,986.19
2019-05-10T02:33:18.018Z,986.19
2019-05-10T02:34:18.002Z,986.16
2019-05-10T02:35:17.982Z,986.18
2019-05-10T02:36:17.959Z,986.19
2019-05-10T02:37:38.946Z,986.17
2019-05-10T02:38:17.924Z,986.21
2019-05-10T02:39:17.891Z,986.20
2019-05-10T02:40:17.873Z,986.17
2019-05-10T02:41:17.854Z,986.18
2019-05-10T02:42:17.831Z,986.16
2019-05-10T02:43:38.814Z,986.15
2019-05-10T02:44:17.776Z,986.13
2019-05-10T02:45:17.766Z,986.14
2019-05-10T02:46:17.742Z,986.19
2019-05-10T02:47:17.722Z,986.21
2019-05-10T02:48:17.698Z,986.21
2019-05-10T02:49:38.681Z,986.22
2019-05-10T02:50:17.659Z,986.21
2019-05-10T02:51:17.632Z,986.27
2019-05-10T02:52:17.616Z,986.28
2019-05-10T02:53:17.593Z,986.28
2019-05-10T02:54:17.559Z,986.29
2019-05-10T02:55:38.554Z,986.29
2019-05-10T02:56:29.716Z,986.30
2019-05-10T02:57:17.512Z,986.29
2019-05-10T02:58:17.486Z,986.32
2019-05-10T02:59:17.466Z,986.30
2019-05-10T03:00:17.437Z,986.32
2019-05-10T03:01:38.419Z,986.31
2019-05-10T03:02:17.402Z,986.29
2019-05-10T03:03:17.377Z,986.33
2019-05-10T03:04:17.361Z,986.34
2019-05-10T03:05:17.339Z,986.37
2019-05-10T03:06:17.311Z,986.33
2019-05-10T03:07:38.295Z,986.33
2019-05-10T03:08:17.285Z,986.34
2019-05-10T03:09:17.241Z,986.35
2019-05-10T03:10:17.224Z,986.32
2019-05-10T03:11:17.210Z,986.39
2019-05-10T03:12:17.197Z,986.39
2019-05-10T03:13:38.152Z,986.40
2019-05-10T03:14:17.135Z,986.38
2019-05-10T03:15:17.111Z,986.39
2019-05-10T03:16:17.089Z,986.39
2019-05-10T03:17:17.069Z,986.39
2019-05-10T03:18:17.046Z,986.42
2019-05-10T03:19:38.030Z,986.47
2019-05-10T03:20:17.009Z,986.45
2019-05-10T03:21:16.982Z,986.46
2019-05-10T03:22:16.998Z,986.47
2019-05-10T03:23:16.945Z,986.50
2019-05-10T03:24:16.925Z,986.50
2019-05-10T03:25:37.894Z,986.50
2019-05-10T03:26:16.875Z,986.53
2019-05-10T03:27:16.998Z,986.52
2019-05-10T03:28:16.894Z,986.56
2019-05-10T03:29:16.804Z,986.55
2019-05-10T03:30:16.858Z,986.59
2019-05-10T03:31:37.765Z,986.60
2019-05-10T03:32:16.743Z,986.61
2019-05-10T03:33:16.721Z,986.61
2019-05-10T03:34:16.721Z,986.63
2019-05-10T03:35:16.677Z,986.59
2019-05-10T03:36:16.657Z,986.63
2019-05-10T03:37:37.630Z,986.65
2019-05-10T03:38:16.612Z,986.64
2019-05-10T03:39:16.589Z,986.64
2019-05-10T03:40:16.564Z,986.63
2019-05-10T03:41:16.540Z,986.65
2019-05-10T03:42:16.541Z,986.67
2019-05-10T03:43:37.578Z,986.66
2019-05-10T03:44:16.487Z,986.65
2019-05-10T03:45:16.452Z,986.68
2019-05-10T03:46:16.428Z,986.67
2019-05-10T03:47:16.446Z,986.65
2019-05-10T03:48:16.382Z,986.66
2019-05-10T03:49:37.365Z,986.67
2019-05-10T03:50:16.342Z,986.69
2019-05-10T03:51:16.315Z,986.69
2019-05-10T03:52:16.297Z,986.68
2019-05-10T03:53:16.271Z,986.69
2019-05-10T03:54:16.253Z,986.66
2019-05-10T03:55:37.235Z,986.67
2019-05-10T03:56:16.207Z,986.70
2019-05-10T03:57:16.189Z,986.68
2019-05-10T03:58:16.166Z,986.74
2019-05-10T03:59:16.143Z,986.73
2019-05-10T04:00:16.119Z,986.78
2019-05-10T04:01:37.113Z,986.75
2019-05-10T04:02:16.073Z,986.73
2019-05-10T04:03:16.047Z,986.76
2019-05-10T04:04:16.031Z,986.76
2019-05-10T04:05:16.010Z,986.78
2019-05-10T04:06:15.991Z,986.77
2019-05-10T04:07:36.969Z,986.81
2019-05-10T04:08:15.948Z,986.78
2019-05-10T04:09:15.917Z,986.81
2019-05-10T04:10:20.380Z,986.80
2019-05-10T04:11:15.908Z,986.88
2019-05-10T04:12:15.860Z,986.87
2019-05-10T04:13:36.829Z,986.89
2019-05-10T04:14:15.808Z,986.89
2019-05-10T04:15:15.792Z,986.95
2019-05-10T04:16:15.757Z,986.90
2019-05-10T04:17:15.733Z,986.92
2019-05-10T04:18:15.714Z,986.95
2019-05-10T04:19:36.693Z,986.94
2019-05-10T04:20:15.670Z,986.97
2019-05-10T04:21:15.650Z,986.95
2019-05-10T04:22:15.718Z,986.94
2019-05-10T04:23:15.608Z,986.97
2019-05-10T04:24:15.592Z,986.98
2019-05-10T04:25:36.560Z,986.97
2019-05-10T04:26:15.535Z,986.98
2019-05-10T04:27:30.693Z,987.00
2019-05-10T04:28:15.520Z,987.00
2019-05-10T04:29:15.473Z,987.01
2019-05-10T04:30:15.450Z,987.00
2019-05-10T04:31:36.445Z,987.03
2019-05-10T04:32:15.423Z,987.08
2019-05-10T04:33:15.394Z,987.09
2019-05-10T04:34:15.361Z,987.06
2019-05-10T04:35:15.332Z,987.10
2019-05-10T04:36:15.317Z,987.12
2019-05-10T04:37:36.292Z,987.11
2019-05-10T04:38:15.264Z,987.14
2019-05-10T04:39:15.249Z,987.12
2019-05-10T04:40:15.244Z,987.17
2019-05-10T04:41:15.202Z,987.17
2019-05-10T04:42:15.210Z,987.17
2019-05-10T04:43:36.157Z,987.17
2019-05-10T04:44:15.137Z,987.20
2019-05-10T04:45:15.158Z,987.22
2019-05-10T04:46:15.089Z,987.22
2019-05-10T04:47:15.070Z,987.22
2019-05-10T04:48:15.048Z,987.27
2019-05-10T04:49:36.022Z,987.24
2019-05-10T04:50:15.003Z,987.30
2019-05-10T04:51:14.981Z,987.30
2019-05-10T04:52:14.993Z,987.29
2019-05-10T04:53:14.979Z,987.28
2019-05-10T04:54:14.910Z,987.31
2019-05-10T04:55:35.894Z,987.32
2019-05-10T04:56:14.899Z,987.33
2019-05-10T04:57:14.850Z,987.35
2019-05-10T04:58:14.812Z,987.32
2019-05-10T04:59:14.802Z,987.34
2019-05-10T05:00:14.777Z,987.34
2019-05-10T05:01:35.746Z,987.35
2019-05-10T05:02:14.733Z,987.35
2019-05-10T05:03:14.705Z,987.36
2019-05-10T05:04:14.685Z,987.37
2019-05-10T05:05:14.659Z,987.38
2019-05-10T05:06:14.653Z,987.38
2019-05-10T05:07:35.628Z,987.43
2019-05-10T05:08:14.595Z,987.43
2019-05-10T05:09:14.568Z,987.45
2019-05-10T05:10:14.553Z,987.37
2019-05-10T05:11:14.522Z,987.38
2019-05-10T05:12:14.506Z,987.38
2019-05-10T05:13:35.489Z,987.39
2019-05-10T05:14:14.459Z,987.40
2019-05-10T05:15:14.439Z,987.38
2019-05-10T05:16:14.410Z,987.40
2019-05-10T05:17:14.394Z,987.40
2019-05-10T05:18:14.365Z,987.42
2019-05-10T05:19:35.366Z,987.45
2019-05-10T05:20:14.334Z,987.43
2019-05-10T05:21:14.304Z,987.45
2019-05-10T05:22:14.279Z,987.50
2019-05-10T05:23:14.263Z,987.50
2019-05-10T05:24:16.973Z,987.52
2019-05-10T05:25:40.113Z,987.52
2019-05-10T05:26:14.196Z,987.58
2019-05-10T05:27:14.176Z,987.56
2019-05-10T05:28:18.373Z,987.56
2019-05-10T05:29:14.131Z,987.59
2019-05-10T05:30:14.101Z,987.59
2019-05-10T05:31:35.091Z,987.61
2019-05-10T05:32:14.066Z,987.62
2019-05-10T05:33:14.108Z,987.62
2019-05-10T05:34:14.022Z,987.63
2019-05-10T05:35:15.483Z,987.68
2019-05-10T05:36:13.976Z,987.67
2019-05-10T05:37:34.952Z,987.68
2019-05-10T05:38:13.933Z,987.74
2019-05-10T05:39:13.913Z,987.70
2019-05-10T05:40:13.933Z,987.72
2019-05-10T05:41:13.865Z,987.75
2019-05-10T05:42:13.852Z,987.72
2019-05-10T05:43:34.831Z,987.83
2019-05-10T05:44:13.813Z,987.80
2019-05-10T05:45:13.789Z,987.83
2019-05-10T05:46:14.573Z,987.86
2019-05-10T05:47:13.743Z,987.91
2019-05-10T05:48:16.178Z,987.92
2019-05-10T05:49:34.709Z,987.97
2019-05-10T05:50:13.683Z,987.91
2019-05-10T05:51:13.659Z,987.92
2019-05-10T05:52:13.640Z,987.94
2019-05-10T05:53:13.617Z,987.99
2019-05-10T05:54:15.111Z,987.96
2019-05-10T05:55:34.575Z,987.99
2019-05-10T05:56:14.685Z,987.97
2019-05-10T05:57:13.536Z,987.93
2019-05-10T05:58:25.594Z,987.97
2019-05-10T05:59:17.502Z,987.98
2019-05-10T06:00:13.465Z,988.00
2019-05-10T06:01:34.454Z,988.00
2019-05-10T06:02:13.433Z,988.02
2019-05-10T06:03:19.347Z,988.06
2019-05-10T06:04:13.392Z,988.04
2019-05-10T06:05:13.371Z,988.09
2019-05-10T06:06:21.584Z,988.08
2019-05-10T06:07:37.984Z,988.08
2019-05-10T06:08:22.724Z,988.11
2019-05-10T06:09:13.288Z,988.09
2019-05-10T06:10:16.898Z,988.13
2019-05-10T06:11:13.245Z,988.12
2019-05-10T06:12:14.285Z,988.14
2019-05-10T06:13:34.217Z,988.10
2019-05-10T06:14:13.212Z,988.11
2019-05-10T06:15:13.169Z,988.16
2019-05-10T06:16:14.882Z,988.15
2019-05-10T06:17:13.128Z,988.13
2019-05-10T06:18:13.117Z,988.14
2019-05-10T06:19:34.083Z,988.15
2019-05-10T06:20:13.063Z,988.14
2019-05-10T06:21:17.802Z,988.18
2019-05-10T06:22:13.019Z,988.20
2019-05-10T06:23:13.010Z,988.14
2019-05-10T06:24:15.567Z,988.13
2019-05-10T06:25:42.744Z,988.19
2019-05-10T06:26:21.392Z,988.17
2019-05-10T06:27:12.926Z,988.18
2019-05-10T06:28:26.295Z,988.15
2019-05-10T06:29:17.317Z,988.16
2019-05-10T06:30:12.863Z,988.17
2019-05-10T06:31:33.872Z,988.22
2019-05-10T06:32:12.830Z,988.19
2019-05-10T06:33:13.392Z,988.24
2019-05-10T06:34:12.791Z,988.24
2019-05-10T06:35:14.040Z,988.22
2019-05-10T06:36:12.746Z,988.17
2019-05-10T06:37:33.754Z,988.22
2019-05-10T06:38:12.727Z,988.19
2019-05-10T06:39:12.698Z,988.22
2019-05-10T06:40:12.667Z,988.30
2019-05-10T06:41:16.940Z,988.31
2019-05-10T06:42:12.644Z,988.28
2019-05-10T06:43:33.610Z,988.25
2019-05-10T06:44:12.590Z,988.27
2019-05-10T06:45:15.773Z,988.25
2019-05-10T06:46:12.546Z,988.27
2019-05-10T06:47:12.541Z,988.24
2019-05-10T06:48:12.518Z,988.29
2019-05-10T06:49:33.489Z,988.30
2019-05-10T06:50:12.473Z,988.29
2019-05-10T06:51:12.483Z,988.28
2019-05-10T06:52:16.093Z,988.30
2019-05-10T06:53:12.429Z,988.27
2019-05-10T06:54:12.393Z,988.26
2019-05-10T06:55:33.385Z,988.25
2019-05-10T06:56:12.359Z,988.29
2019-05-10T06:57:17.544Z,988.25
2019-05-10T06:58:12.324Z,988.34
2019-05-10T06:59:14.040Z,988.35
2019-05-10T07:00:12.279Z,988.43
2019-05-10T07:01:38.407Z,988.42
2019-05-10T07:02:12.238Z,988.43
2019-05-10T07:03:12.219Z,988.42
2019-05-10T07:04:12.209Z,988.44
2019-05-10T07:05:12.189Z,988.42
2019-05-10T07:06:12.167Z,988.37
2019-05-10T07:07:44.173Z,988.43
2019-05-10T07:08:19.659Z,988.42
2019-05-10T07:09:12.113Z,988.42
2019-05-10T07:10:18.705Z,988.40
2019-05-10T07:11:12.080Z,988.38
2019-05-10T07:12:15.345Z,988.41
2019-05-10T07:13:33.040Z,988.47
2019-05-10T07:14:12.014Z,988.45
2019-05-10T07:15:12.001Z,988.42
2019-05-10T07:16:14.544Z,988.45
2019-05-10T07:17:11.967Z,988.45
2019-05-10T07:18:16.935Z,988.53
2019-05-10T07:19:35.045Z,988.47
2019-05-10T07:20:11.913Z,988.49
2019-05-10T07:21:11.886Z,988.45
2019-05-10T07:22:11.876Z,988.45
2019-05-10T07:23:11.942Z,988.51
2019-05-10T07:24:11.841Z,988.49
2019-05-10T07:25:37.694Z,988.49
2019-05-10T07:26:16.987Z,988.42
2019-05-10T07:27:11.788Z,988.46
2019-05-10T07:28:15.611Z,988.48
2019-05-10T07:29:11.743Z,988.49
2019-05-10T07:30:11.731Z,988.47
2019-05-10T07:31:32.714Z,988.52
2019-05-10T07:32:16.469Z,988.50
2019-05-10T07:33:11.715Z,988.49
2019-05-10T07:34:15.767Z,988.53
2019-05-10T07:35:11.645Z,988.58
2019-05-10T07:36:14.746Z,988.54
2019-05-10T07:37:32.640Z,988.53
2019-05-10T07:38:11.593Z,988.59
2019-05-10T07:39:11.574Z,988.60
2019-05-10T07:40:11.559Z,988.67
2019-05-10T07:41:11.555Z,988.62
2019-05-10T07:42:11.530Z,988.61
2019-05-10T07:43:32.515Z,988.59
2019-05-10T07:44:11.492Z,988.58
2019-05-10T07:45:11.472Z,988.66
2019-05-10T07:46:11.453Z,988.67
2019-05-10T07:47:11.443Z,988.65
2019-05-10T07:48:11.421Z,988.70
2019-05-10T07:49:32.623Z,988.77
2019-05-10T07:50:11.663Z,988.69
2019-05-10T07:51:11.369Z,988.75
2019-05-10T07:52:11.353Z,988.74
2019-05-10T07:53:16.412Z,988.62
2019-05-10T07:54:11.327Z,988.76
2019-05-10T07:55:32.329Z,988.83
2019-05-10T07:56:11.297Z,988.80
2019-05-10T07:57:11.280Z,988.83
2019-05-10T07:58:11.263Z,988.82
2019-05-10T07:59:16.217Z,988.84
2019-05-10T08:00:11.244Z,988.86
2019-05-10T08:01:34.711Z,988.86
2019-05-10T08:02:12.744Z,988.88
2019-05-10T08:03:16.058Z,988.83
2019-05-10T08:04:12.994Z,988.83
2019-05-10T08:05:13.710Z,988.94
2019-05-10T08:06:11.140Z,988.89
2019-05-10T08:07:32.131Z,988.88
2019-05-10T08:08:11.114Z,988.91
2019-05-10T08:09:11.096Z,988.91
2019-05-10T08:10:11.085Z,988.95
2019-05-10T08:11:11.065Z,988.93
2019-05-10T08:12:12.920Z,988.92
2019-05-10T08:13:32.053Z,988.95
2019-05-10T08:14:11.378Z,988.99
2019-05-10T08:15:11.012Z,988.94
2019-05-10T08:16:18.903Z,989.01
2019-05-10T08:17:10.978Z,988.94
2019-05-10T08:18:15.349Z,988.94
2019-05-10T08:19:32.644Z,988.95
2019-05-10T08:20:20.360Z,989.04
2019-05-10T08:21:21.463Z,988.96
2019-05-10T08:22:12.942Z,988.99
2019-05-10T08:23:12.924Z,989.03
2019-05-10T08:24:14.395Z,989.05
2019-05-10T08:25:36.326Z,989.04
2019-05-10T08:26:16.159Z,989.05
2019-05-10T08:27:14.245Z,989.03
2019-05-10T08:28:12.761Z,989.06
2019-05-10T08:29:13.598Z,989.04
2019-05-10T08:30:22.626Z,989.12
2019-05-10T08:31:40.129Z,989.03
2019-05-10T08:32:12.883Z,989.05
2019-05-10T08:33:13.572Z,989.12
2019-05-10T08:34:11.759Z,989.08
2019-05-10T08:35:16.460Z,989.09
2019-05-10T08:36:12.164Z,989.17
2019-05-10T08:37:37.398Z,989.17
2019-05-10T08:38:12.725Z,989.21
2019-05-10T08:39:13.592Z,989.16
2019-05-10T08:40:12.768Z,989.17
2019-05-10T08:41:14.733Z,989.18
2019-05-10T08:42:30.528Z,989.18
2019-05-10T08:43:38.866Z,989.27
2019-05-10T08:44:18.780Z,989.28
2019-05-10T08:45:12.550Z,989.23
2019-05-10T08:46:11.969Z,989.22
2019-05-10T08:47:15.657Z,989.25
2019-05-10T08:48:12.659Z,989.22
2019-05-10T08:49:41.735Z,989.27
2019-05-10T08:50:28.375Z,989.27
2019-05-10T08:51:12.583Z,989.22
2019-05-10T08:52:12.222Z,989.24
2019-05-10T08:53:15.618Z,989.25
2019-05-10T08:54:12.154Z,989.21
2019-05-10T08:55:32.100Z,989.22
2019-05-10T08:56:13.664Z,989.33
2019-05-10T08:57:17.868Z,989.36
2019-05-10T08:58:12.379Z,989.31
2019-05-10T08:59:16.323Z,989.24
2019-05-10T09:00:12.754Z,989.39
2019-05-10T09:01:38.784Z,989.35
2019-05-10T09:02:12.617Z,989.34
2019-05-10T09:03:18.026Z,989.42
2019-05-10T09:04:13.200Z,989.39
2019-05-10T09:05:12.487Z,989.32
2019-05-10T09:06:14.243Z,989.42
2019-05-10T09:07:36.990Z,989.41
2019-05-10T09:08:13.547Z,989.40
2019-05-10T09:09:12.352Z,989.41
2019-05-10T09:10:12.568Z,989.49
2019-05-10T09:11:10.211Z,989.40
2019-05-10T09:12:12.326Z,989.52
2019-05-10T09:13:37.180Z,989.44
2019-05-10T09:14:12.306Z,989.48
2019-05-10T09:15:13.042Z,989.40
2019-05-10T09:16:10.157Z,989.51
2019-05-10T09:17:17.138Z,989.47
2019-05-10T09:18:12.497Z,989.53
2019-05-10T09:19:37.504Z,989.53
2019-05-10T09:20:19.548Z,989.55
2019-05-10T09:21:11.546Z,989.58
2019-05-10T09:22:12.338Z,989.58
2019-05-10T09:23:17.964Z,989.58
2019-05-10T09:24:10.045Z,989.54
2019-05-10T09:25:33.273Z,989.58
2019-05-10T09:26:15.985Z,989.58
2019-05-10T09:27:10.014Z,989.56
2019-05-10T09:28:16.563Z,989.65
2019-05-10T09:29:12.069Z,989.56
2019-05-10T09:30:14.058Z,989.62
2019-05-10T09:31:32.639Z,989.60
2019-05-10T09:32:12.354Z,989.63
2019-05-10T09:33:11.438Z,989.64
2019-05-10T09:34:12.128Z,989.64
2019-05-10T09:35:09.920Z,989.71
2019-05-10T09:36:12.284Z,989.66
2019-05-10T09:37:32.043Z,989.71
2019-05-10T09:38:12.239Z,989.76
2019-05-10T09:39:17.760Z,989.70
2019-05-10T09:40:12.747Z,989.69
2019-05-10T09:41:11.782Z,989.71
2019-05-10T09:42:18.782Z,989.69
2019-05-10T09:43:31.982Z,989.74
2019-05-10T09:44:09.788Z,989.73
2019-05-10T09:45:10.544Z,989.77
2019-05-10T09:46:11.502Z,989.69
2019-05-10T09:47:11.947Z,989.74
2019-05-10T09:48:12.004Z,989.67
2019-05-10T09:49:33.080Z,989.68
2019-05-10T09:50:09.717Z,989.68
2019-05-10T09:51:09.701Z,989.65
2019-05-10T09:52:12.592Z,989.63
2019-05-10T09:53:12.544Z,989.74
2019-05-10T09:54:09.678Z,989.75
2019-05-10T09:55:30.657Z,989.75
2019-05-10T09:56:09.638Z,989.73
2019-05-10T09:57:09.628Z,989.78
2019-05-10T09:58:09.612Z,989.74
2019-05-10T09:59:09.604Z,989.66
2019-05-10T10:00:09.586Z,989.69
2019-05-10T10:01:30.581Z,989.71
2019-05-10T10:02:14.345Z,989.74
2019-05-10T10:03:12.554Z,989.69
2019-05-10T10:04:09.532Z,989.65
2019-05-10T10:05:09.540Z,989.67
2019-05-10T10:06:11.381Z,989.64
2019-05-10T10:07:33.451Z,989.66
2019-05-10T10:08:10.919Z,989.64
2019-05-10T10:09:11.135Z,989.71
2019-05-10T10:10:12.933Z,989.67
2019-05-10T10:11:15.126Z,989.72
2019-05-10T10:12:09.430Z,989.74
2019-05-10T10:13:39.586Z,989.76
2019-05-10T10:14:10.136Z,989.77
2019-05-10T10:15:11.885Z,989.77
2019-05-10T10:16:14.515Z,989.79
2019-05-10T10:17:09.384Z,989.77
2019-05-10T10:18:12.467Z,989.73
2019-05-10T10:19:30.348Z,989.69
2019-05-10T10:20:09.335Z,989.77
2019-05-10T10:21:10.469Z,989.68
2019-05-10T10:22:10.925Z,989.69
2019-05-10T10:23:09.300Z,989.75
2019-05-10T10:24:15.722Z,989.72
2019-05-10T10:25:35.242Z,989.69
2019-05-10T10:26:12.818Z,989.75
2019-05-10T10:27:09.245Z,989.76
2019-05-10T10:28:17.180Z,989.76
2019-05-10T10:29:09.228Z,989.76
2019-05-10T10:30:12.783Z,989.81
2019-05-10T10:31:33.319Z,989.79
2019-05-10T10:32:09.207Z,989.77
2019-05-10T10:33:11.180Z,989.78
2019-05-10T10:34:09.153Z,989.71
2019-05-10T10:35:13.156Z,989.76
2019-05-10T10:36:10.702Z,989.72
2019-05-10T10:37:31.309Z,989.68
2019-05-10T10:38:09.095Z,989.72
2019-05-10T10:39:09.089Z,989.75
2019-05-10T10:40:09.165Z,989.79
2019-05-10T10:41:09.061Z,989.82
2019-05-10T10:42:13.055Z,989.82
2019-05-10T10:43:30.040Z,989.84
2019-05-10T10:44:09.022Z,989.80
2019-05-10T10:45:09.006Z,989.78
2019-05-10T10:46:12.496Z,989.83
2019-05-10T10:47:08.987Z,989.80
2019-05-10T10:48:12.719Z,989.80
2019-05-10T10:49:31.966Z,989.75
2019-05-10T10:50:13.176Z,989.72
2019-05-10T10:51:08.944Z,989.72
2019-05-10T10:52:11.267Z,989.77
2019-05-10T10:53:08.919Z,989.74
2019-05-10T10:54:09.017Z,989.79
2019-05-10T10:55:36.246Z,989.77
2019-05-10T10:56:08.912Z,989.81
2019-05-10T10:57:08.884Z,989.82
2019-05-10T10:58:08.877Z,989.81
2019-05-10T10:59:08.893Z,989.84
2019-05-10T11:00:08.876Z,989.82
2019-05-10T11:01:44.789Z,989.86
2019-05-10T11:02:32.768Z,989.87
2019-05-10T11:03:08.856Z,989.89
2019-05-10T11:04:09.755Z,989.89
2019-05-10T11:05:08.826Z,989.81
2019-05-10T11:06:08.823Z,989.84
2019-05-10T11:07:30.351Z,989.91
2019-05-10T11:08:10.997Z,989.86
2019-05-10T11:09:08.797Z,989.86
2019-05-10T11:10:16.097Z,989.92
2019-05-10T11:11:10.580Z,989.89
2019-05-10T11:12:08.789Z,989.87
2019-05-10T11:14:10.856Z,989.87
2019-05-10T11:15:11.199Z,989.89
2019-05-10T11:16:15.059Z,989.85
2019-05-10T11:17:11.083Z,989.86
2019-05-10T11:18:08.757Z,989.87
2019-05-10T11:19:31.692Z,989.86
2019-05-10T11:20:11.299Z,989.95
2019-05-10T11:21:11.182Z,989.91
2019-05-10T11:22:09.814Z,989.90
2019-05-10T11:23:10.779Z,989.87
2019-05-10T11:24:17.359Z,989.84
2019-05-10T11:25:29.750Z,989.81
2019-05-10T11:26:10.801Z,989.81
2019-05-10T11:27:15.190Z,989.80
2019-05-10T11:28:09.236Z,989.84
2019-05-10T11:29:08.750Z,989.84
2019-05-10T11:30:08.709Z,989.82
2019-05-10T11:31:31.224Z,989.80
2019-05-10T11:32:15.697Z,989.87
2019-05-10T11:33:23.856Z,989.76
2019-05-10T11:34:08.694Z,989.74
2019-05-10T11:35:11.927Z,989.73
2019-05-10T11:36:10.947Z,989.74
2019-05-10T11:37:32.912Z,989.68
2019-05-10T11:38:12.944Z,989.66
2019-05-10T11:39:24.768Z,989.65
2019-05-10T11:40:08.656Z,989.64
2019-05-10T11:41:13.638Z,989.63
2019-05-10T11:42:08.653Z,989.63
2019-05-10T11:43:31.353Z,989.62
2019-05-10T11:44:11.210Z,989.62
2019-05-10T11:45:11.219Z,989.60
2019-05-10T11:46:08.646Z,989.62
2019-05-10T11:47:21.000Z,989.63
2019-05-10T11:48:10.884Z,989.62
2019-05-10T11:49:30.765Z,989.65
2019-05-10T11:50:10.471Z,989.71
2019-05-10T11:51:12.262Z,989.65
2019-05-10T11:52:12.351Z,989.67
2019-05-10T11:53:13.403Z,989.70
2019-05-10T11:54:11.012Z,989.68
2019-05-10T11:55:30.976Z,989.74
2019-05-10T11:56:14.161Z,989.73
2019-05-10T11:57:12.824Z,989.74
2019-05-10T11:58:12.735Z,989.69
2019-05-10T11:59:12.348Z,989.69
2019-05-10T12:00:14.625Z,989.66
2019-05-10T12:01:29.493Z,989.72
2019-05-10T12:02:10.442Z,989.70
2019-05-10T12:03:14.833Z,989.66
2019-05-10T12:04:13.107Z,989.65
2019-05-10T12:05:16.810Z,989.68
2019-05-10T12:06:09.706Z,989.69
2019-05-10T12:07:35.208Z,989.64
2019-05-10T12:08:08.465Z,989.68
2019-05-10T12:09:08.465Z,989.68
2019-05-10T12:10:16.967Z,989.66
2019-05-10T12:12:11.981Z,989.62
2019-05-10T12:13:32.568Z,989.68
2019-05-10T12:14:08.445Z,989.62
2019-05-10T12:15:08.440Z,989.60
2019-05-10T12:16:08.485Z,989.61
2019-05-10T12:17:13.829Z,989.61
2019-05-10T12:18:08.440Z,989.60
2019-05-10T12:19:36.703Z,989.57
2019-05-10T12:20:12.553Z,989.59
2019-05-10T12:21:11.032Z,989.54
2019-05-10T12:22:08.482Z,989.55
2019-05-10T12:23:13.500Z,989.60
2019-05-10T12:25:46.925Z,989.53
2019-05-10T12:26:17.861Z,989.49
2019-05-10T12:26:19.144Z,989.64
2019-05-10T12:27:18.473Z,989.59
2019-05-10T12:28:08.440Z,989.54
2019-05-10T12:29:12.411Z,989.52
2019-05-10T12:30:08.462Z,989.50